sensor_id;sensor_type;location;lat;lon;timestamp;pressure;altitude;pressure_sealevel;temperature;humidity
76460;BME280;65299;46.084;18.762;2024-02-28T00:01:18;100559.47;;;12.64;67.40
76460;BME280;65299;46.084;18.762;2024-02-28T00:04:19;100548.81;;;12.59;68.51
76460;BME280;65299;46.084;18.762;2024-02-28T00:07:19;100552.22;;;12.85;67.97
76460;BME280;65299;46.084;18.762;2024-02-28T00:10:20;100554.34;;;12.93;67.62
76460;BME280;65299;46.084;18.762;2024-02-28T00:13:21;100549.53;;;12.90;66.19
76460;BME280;65299;46.084;18.762;2024-02-28T00:16:23;100545.56;;;12.92;67.22
76460;BME280;65299;46.084;18.762;2024-02-28T00:19:23;100547.69;;;12.85;66.49
76460;BME280;65299;46.084;18.762;2024-02-28T00:22:25;100541.03;;;12.93;67.02
76460;BME280;65299;46.084;18.762;2024-02-28T00:25:25;100538.38;;;12.83;66.28
76460;BME280;65299;46.084;18.762;2024-02-28T00:28:26;100543.41;;;12.89;65.82
76460;BME280;65299;46.084;18.762;2024-02-28T00:31:26;100549.03;;;12.93;66.22
76460;BME280;65299;46.084;18.762;2024-02-28T00:34:27;100554.34;;;12.88;66.14
76460;BME280;65299;46.084;18.762;2024-02-28T00:37:27;100566.88;;;12.87;66.48
76460;BME280;65299;46.084;18.762;2024-02-28T00:40:27;100565.84;;;12.73;67.00
76460;BME280;65299;46.084;18.762;2024-02-28T00:43:28;100557.31;;;12.76;67.31
76460;BME280;65299;46.084;18.762;2024-02-28T00:46:29;100557.00;;;12.83;66.99
76460;BME280;65299;46.084;18.762;2024-02-28T00:49:29;100567.13;;;12.91;66.95
76460;BME280;65299;46.084;18.762;2024-02-28T00:52:29;100558.91;;;12.82;67.15
76460;BME280;65299;46.084;18.762;2024-02-28T00:55:32;100565.50;;;13.00;66.58
76460;BME280;65299;46.084;18.762;2024-02-28T00:58:32;100566.38;;;12.80;67.28
76460;BME280;65299;46.084;18.762;2024-02-28T01:01:33;100559.19;;;12.76;67.71
76460;BME280;65299;46.084;18.762;2024-02-28T01:04:33;100554.94;;;12.70;67.47
76460;BME280;65299;46.084;18.762;2024-02-28T01:07:33;100555.72;;;12.65;67.37
76460;BME280;65299;46.084;18.762;2024-02-28T01:10:34;100565.38;;;12.46;67.53
76460;BME280;65299;46.084;18.762;2024-02-28T01:13:34;100573.88;;;12.43;68.06
76460;BME280;65299;46.084;18.762;2024-02-28T01:16:35;100579.19;;;12.33;68.19
76460;BME280;65299;46.084;18.762;2024-02-28T01:19:35;100575.47;;;12.24;68.69
76460;BME280;65299;46.084;18.762;2024-02-28T01:22:35;100572.00;;;12.28;68.45
76460;BME280;65299;46.084;18.762;2024-02-28T01:25:36;100573.34;;;12.11;68.89
76460;BME280;65299;46.084;18.762;2024-02-28T01:28:36;100580.78;;;11.89;69.61
76460;BME280;65299;46.084;18.762;2024-02-28T01:31:37;100581.03;;;11.87;69.90
76460;BME280;65299;46.084;18.762;2024-02-28T01:34:37;100576.97;;;11.59;70.53
76460;BME280;65299;46.084;18.762;2024-02-28T01:37:37;100580.47;;;11.75;70.00
76460;BME280;65299;46.084;18.762;2024-02-28T01:40:38;100582.34;;;11.80;69.85
76460;BME280;65299;46.084;18.762;2024-02-28T01:43:38;100572.16;;;11.56;70.55
76460;BME280;65299;46.084;18.762;2024-02-28T01:46:39;100575.06;;;11.55;70.77
76460;BME280;65299;46.084;18.762;2024-02-28T01:49:39;100565.16;;;11.25;71.79
76460;BME280;65299;46.084;18.762;2024-02-28T01:52:41;100565.66;;;11.17;71.86
76460;BME280;65299;46.084;18.762;2024-02-28T01:55:42;100575.22;;;11.18;71.91
76460;BME280;65299;46.084;18.762;2024-02-28T01:58:47;100564.03;;;11.16;71.87
76460;BME280;65299;46.084;18.762;2024-02-28T02:01:47;100575.13;;;10.98;72.67
76460;BME280;65299;46.084;18.762;2024-02-28T02:04:48;100573.00;;;11.00;72.47
76460;BME280;65299;46.084;18.762;2024-02-28T02:07:48;100577.78;;;10.93;72.59
76460;BME280;65299;46.084;18.762;2024-02-28T02:10:49;100581.41;;;10.82;72.96
76460;BME280;65299;46.084;18.762;2024-02-28T02:13:51;100575.28;;;10.81;73.06
76460;BME280;65299;46.084;18.762;2024-02-28T02:16:51;100571.00;;;10.75;72.81
76460;BME280;65299;46.084;18.762;2024-02-28T02:19:52;100577.19;;;10.81;72.51
76460;BME280;65299;46.084;18.762;2024-02-28T02:22:53;100584.81;;;10.77;72.33
76460;BME280;65299;46.084;18.762;2024-02-28T02:25:53;100577.56;;;10.63;72.70
76460;BME280;65299;46.084;18.762;2024-02-28T02:28:54;100577.75;;;10.51;72.86
76460;BME280;65299;46.084;18.762;2024-02-28T02:31:54;100569.53;;;10.53;73.14
76460;BME280;65299;46.084;18.762;2024-02-28T02:34:55;100576.84;;;10.36;73.54
76460;BME280;65299;46.084;18.762;2024-02-28T02:37:56;100589.59;;;10.39;73.68
76460;BME280;65299;46.084;18.762;2024-02-28T02:40:56;100586.53;;;10.52;73.08
76460;BME280;65299;46.084;18.762;2024-02-28T02:43:56;100594.59;;;10.30;73.75
76460;BME280;65299;46.084;18.762;2024-02-28T02:46:58;100590.25;;;10.19;73.72
76460;BME280;65299;46.084;18.762;2024-02-28T02:49:58;100596.19;;;10.04;74.19
76460;BME280;65299;46.084;18.762;2024-02-28T02:52:58;100592.16;;;10.24;73.72
76460;BME280;65299;46.084;18.762;2024-02-28T02:55:59;100603.84;;;10.28;73.51
76460;BME280;65299;46.084;18.762;2024-02-28T02:58:59;100603.34;;;10.31;73.03
76460;BME280;65299;46.084;18.762;2024-02-28T03:02:00;100603.22;;;10.16;73.52
76460;BME280;65299;46.084;18.762;2024-02-28T03:05:00;100609.72;;;10.08;74.13
76460;BME280;65299;46.084;18.762;2024-02-28T03:08:00;100611.25;;;9.99;74.60
76460;BME280;65299;46.084;18.762;2024-02-28T03:11:01;100616.91;;;10.08;74.08
76460;BME280;65299;46.084;18.762;2024-02-28T03:14:04;100612.97;;;9.62;74.96
76460;BME280;65299;46.084;18.762;2024-02-28T03:17:04;100617.91;;;9.53;75.43
76460;BME280;65299;46.084;18.762;2024-02-28T03:20:05;100614.34;;;9.43;75.60
76460;BME280;65299;46.084;18.762;2024-02-28T03:23:07;100616.44;;;9.19;76.01
76460;BME280;65299;46.084;18.762;2024-02-28T03:26:08;100621.47;;;9.20;75.68
76460;BME280;65299;46.084;18.762;2024-02-28T03:29:08;100626.16;;;9.13;75.73
76460;BME280;65299;46.084;18.762;2024-02-28T03:32:09;100630.13;;;8.94;76.16
76460;BME280;65299;46.084;18.762;2024-02-28T03:35:09;100625.22;;;9.03;76.09
76460;BME280;65299;46.084;18.762;2024-02-28T03:38:09;100631.56;;;9.02;75.47
76460;BME280;65299;46.084;18.762;2024-02-28T03:41:10;100640.94;;;9.09;75.38
76460;BME280;65299;46.084;18.762;2024-02-28T03:44:10;100637.59;;;8.97;75.75
76460;BME280;65299;46.084;18.762;2024-02-28T03:47:11;100633.28;;;8.91;75.94
76460;BME280;65299;46.084;18.762;2024-02-28T03:50:11;100636.78;;;8.97;75.80
76460;BME280;65299;46.084;18.762;2024-02-28T03:53:12;100633.28;;;8.91;75.89
76460;BME280;65299;46.084;18.762;2024-02-28T03:56:12;100638.63;;;8.80;76.00
76460;BME280;65299;46.084;18.762;2024-02-28T03:59:13;100641.63;;;8.67;76.38
76460;BME280;65299;46.084;18.762;2024-02-28T04:02:13;100637.06;;;8.79;76.01
76460;BME280;65299;46.084;18.762;2024-02-28T04:05:13;100632.63;;;8.68;75.84
76460;BME280;65299;46.084;18.762;2024-02-28T04:08:14;100636.97;;;8.57;76.71
76460;BME280;65299;46.084;18.762;2024-02-28T04:11:14;100644.34;;;8.88;75.50
76460;BME280;65299;46.084;18.762;2024-02-28T04:14:15;100651.59;;;8.98;75.35
76460;BME280;65299;46.084;18.762;2024-02-28T04:17:15;100649.31;;;8.85;75.35
76460;BME280;65299;46.084;18.762;2024-02-28T04:20:16;100654.44;;;8.91;75.17
76460;BME280;65299;46.084;18.762;2024-02-28T04:23:16;100646.88;;;9.00;74.94
76460;BME280;65299;46.084;18.762;2024-02-28T04:26:17;100641.28;;;8.80;75.76
76460;BME280;65299;46.084;18.762;2024-02-28T04:29:17;100641.44;;;8.90;75.59
76460;BME280;65299;46.084;18.762;2024-02-28T04:32:18;100633.75;;;8.72;75.84
76460;BME280;65299;46.084;18.762;2024-02-28T04:35:18;100648.84;;;8.71;76.24
76460;BME280;65299;46.084;18.762;2024-02-28T04:38:19;100658.63;;;8.71;76.28
76460;BME280;65299;46.084;18.762;2024-02-28T04:41:19;100651.88;;;8.80;75.79
76460;BME280;65299;46.084;18.762;2024-02-28T04:44:19;100649.63;;;8.55;76.57
76460;BME280;65299;46.084;18.762;2024-02-28T04:47:20;100650.69;;;8.71;76.19
76460;BME280;65299;46.084;18.762;2024-02-28T04:50:20;100658.63;;;8.71;75.95
76460;BME280;65299;46.084;18.762;2024-02-28T04:53:20;100656.38;;;8.63;76.24
76460;BME280;65299;46.084;18.762;2024-02-28T04:56:21;100660.41;;;8.65;76.37
76460;BME280;65299;46.084;18.762;2024-02-28T04:59:21;100656.28;;;8.74;75.91
76460;BME280;65299;46.084;18.762;2024-02-28T05:02:22;100645.47;;;8.76;76.00
76460;BME280;65299;46.084;18.762;2024-02-28T05:05:22;100660.88;;;8.79;75.49
76460;BME280;65299;46.084;18.762;2024-02-28T05:08:24;100653.50;;;8.81;75.46
76460;BME280;65299;46.084;18.762;2024-02-28T05:11:25;100660.56;;;8.59;76.22
76460;BME280;65299;46.084;18.762;2024-02-28T05:14:25;100662.81;;;8.67;75.66
76460;BME280;65299;46.084;18.762;2024-02-28T05:17:26;100667.66;;;8.42;76.62
76460;BME280;65299;46.084;18.762;2024-02-28T05:20:27;100672.78;;;8.31;76.76
76460;BME280;65299;46.084;18.762;2024-02-28T05:23:28;100672.31;;;8.34;76.62
76460;BME280;65299;46.084;18.762;2024-02-28T05:26:29;100673.34;;;8.05;77.00
76460;BME280;65299;46.084;18.762;2024-02-28T05:29:31;100675.31;;;7.98;77.31
76460;BME280;65299;46.084;18.762;2024-02-28T05:32:32;100680.56;;;7.82;78.32
76460;BME280;65299;46.084;18.762;2024-02-28T05:35:33;100683.06;;;7.88;78.11
76460;BME280;65299;46.084;18.762;2024-02-28T05:38:33;100682.72;;;7.85;78.21
76460;BME280;65299;46.084;18.762;2024-02-28T05:41:34;100684.47;;;7.79;78.35
76460;BME280;65299;46.084;18.762;2024-02-28T05:44:34;100686.38;;;7.95;78.28
76460;BME280;65299;46.084;18.762;2024-02-28T05:47:35;100691.16;;;8.10;77.36
76460;BME280;65299;46.084;18.762;2024-02-28T05:50:35;100701.66;;;7.93;77.72
76460;BME280;65299;46.084;18.762;2024-02-28T05:53:35;100701.91;;;7.80;78.21
76460;BME280;65299;46.084;18.762;2024-02-28T05:56:36;100702.69;;;7.92;77.88
76460;BME280;65299;46.084;18.762;2024-02-28T05:59:36;100714.25;;;8.03;77.90
76460;BME280;65299;46.084;18.762;2024-02-28T06:02:37;100712.13;;;8.28;76.50
76460;BME280;65299;46.084;18.762;2024-02-28T06:05:38;100718.31;;;7.94;77.84
76460;BME280;65299;46.084;18.762;2024-02-28T06:08:39;100730.41;;;8.18;77.14
76460;BME280;65299;46.084;18.762;2024-02-28T06:11:40;100726.03;;;8.52;76.19
76460;BME280;65299;46.084;18.762;2024-02-28T06:14:40;100742.00;;;8.57;75.97
76460;BME280;65299;46.084;18.762;2024-02-28T06:17:41;100738.50;;;8.40;76.56
76460;BME280;65299;46.084;18.762;2024-02-28T06:20:41;100737.66;;;8.51;76.35
76460;BME280;65299;46.084;18.762;2024-02-28T06:23:42;100744.41;;;8.58;76.07
76460;BME280;65299;46.084;18.762;2024-02-28T06:26:42;100746.22;;;8.58;75.83
76460;BME280;65299;46.084;18.762;2024-02-28T06:29:43;100746.81;;;8.76;75.27
76460;BME280;65299;46.084;18.762;2024-02-28T06:32:43;100748.81;;;8.53;76.08
76460;BME280;65299;46.084;18.762;2024-02-28T06:35:45;100748.19;;;8.79;75.33
76460;BME280;65299;46.084;18.762;2024-02-28T06:38:46;100750.19;;;8.72;75.63
76460;BME280;65299;46.084;18.762;2024-02-28T06:41:46;100752.75;;;9.00;74.76
76460;BME280;65299;46.084;18.762;2024-02-28T06:44:47;100748.13;;;9.07;74.67
76460;BME280;65299;46.084;18.762;2024-02-28T06:47:48;100764.81;;;9.24;74.54
76460;BME280;65299;46.084;18.762;2024-02-28T06:50:48;100756.31;;;9.22;74.49
76460;BME280;65299;46.084;18.762;2024-02-28T06:53:49;100760.53;;;9.23;75.02
76460;BME280;65299;46.084;18.762;2024-02-28T06:56:49;100761.59;;;9.22;75.84
76460;BME280;65299;46.084;18.762;2024-02-28T06:59:49;100767.66;;;9.39;75.15
76460;BME280;65299;46.084;18.762;2024-02-28T07:02:53;100776.66;;;9.55;75.05
76460;BME280;65299;46.084;18.762;2024-02-28T07:05:53;100773.09;;;9.66;75.24
76460;BME280;65299;46.084;18.762;2024-02-28T07:08:55;100783.06;;;10.19;73.45
76460;BME280;65299;46.084;18.762;2024-02-28T07:11:55;100778.31;;;10.42;73.40
76460;BME280;65299;46.084;18.762;2024-02-28T07:14:55;100783.38;;;10.49;72.96
76460;BME280;65299;46.084;18.762;2024-02-28T07:17:56;100788.91;;;10.69;72.62
76460;BME280;65299;46.084;18.762;2024-02-28T07:20:56;100796.72;;;10.80;72.72
76460;BME280;65299;46.084;18.762;2024-02-28T07:23:57;100798.50;;;11.33;71.35
76460;BME280;65299;46.084;18.762;2024-02-28T07:26:57;100805.03;;;11.57;70.52
76460;BME280;65299;46.084;18.762;2024-02-28T07:29:57;100815.03;;;11.82;69.98
76460;BME280;65299;46.084;18.762;2024-02-28T07:32:58;100809.56;;;12.04;69.50
76460;BME280;65299;46.084;18.762;2024-02-28T07:35:58;100816.38;;;12.41;68.45
76460;BME280;65299;46.084;18.762;2024-02-28T07:39:01;100823.09;;;12.64;68.06
76460;BME280;65299;46.084;18.762;2024-02-28T07:42:01;100818.81;;;12.58;68.36
76460;BME280;65299;46.084;18.762;2024-02-28T07:45:02;100817.69;;;12.39;69.46
76460;BME280;65299;46.084;18.762;2024-02-28T07:48:02;100818.19;;;12.31;69.45
76460;BME280;65299;46.084;18.762;2024-02-28T07:51:09;100820.94;;;12.61;68.17
76460;BME280;65299;46.084;18.762;2024-02-28T07:54:09;100818.31;;;12.66;67.90
76460;BME280;65299;46.084;18.762;2024-02-28T07:57:10;100815.72;;;13.06;67.08
76460;BME280;65299;46.084;18.762;2024-02-28T08:00:12;100815.13;;;12.79;67.60
76460;BME280;65299;46.084;18.762;2024-02-28T08:03:13;100819.44;;;13.05;67.41
76460;BME280;65299;46.084;18.762;2024-02-28T08:06:14;100819.69;;;12.99;67.56
76460;BME280;65299;46.084;18.762;2024-02-28T08:09:14;100813.88;;;13.07;67.08
76460;BME280;65299;46.084;18.762;2024-02-28T08:12:16;100822.09;;;13.41;65.45
76460;BME280;65299;46.084;18.762;2024-02-28T08:15:16;100819.97;;;13.43;64.76
76460;BME280;65299;46.084;18.762;2024-02-28T08:18:16;100823.19;;;13.40;65.18
76460;BME280;65299;46.084;18.762;2024-02-28T08:21:17;100818.38;;;13.47;64.85
76460;BME280;65299;46.084;18.762;2024-02-28T08:24:18;100815.19;;;13.24;65.38
76460;BME280;65299;46.084;18.762;2024-02-28T08:27:19;100815.47;;;13.23;65.36
76460;BME280;65299;46.084;18.762;2024-02-28T08:30:20;100819.19;;;13.37;65.10
76460;BME280;65299;46.084;18.762;2024-02-28T08:33:21;100811.44;;;13.56;64.13
76460;BME280;65299;46.084;18.762;2024-02-28T08:36:21;100805.00;;;13.67;63.86
76460;BME280;65299;46.084;18.762;2024-02-28T08:39:22;100806.81;;;13.81;63.12
76460;BME280;65299;46.084;18.762;2024-02-28T08:42:26;100799.81;;;14.10;62.35
76460;BME280;65299;46.084;18.762;2024-02-28T08:45:27;100805.97;;;14.01;62.86
76460;BME280;65299;46.084;18.762;2024-02-28T08:48:28;100803.56;;;14.04;62.66
76460;BME280;65299;46.084;18.762;2024-02-28T08:51:31;100798.44;;;14.13;61.81
76460;BME280;65299;46.084;18.762;2024-02-28T08:54:31;100807.56;;;14.02;62.06
76460;BME280;65299;46.084;18.762;2024-02-28T08:57:32;100809.16;;;14.03;62.00
76460;BME280;65299;46.084;18.762;2024-02-28T09:00:32;100810.44;;;14.21;61.87
76460;BME280;65299;46.084;18.762;2024-02-28T09:03:33;100805.50;;;14.53;60.86
76460;BME280;65299;46.084;18.762;2024-02-28T09:06:33;100809.84;;;14.82;60.21
76460;BME280;65299;46.084;18.762;2024-02-28T09:09:34;100809.75;;;14.98;59.92
76460;BME280;65299;46.084;18.762;2024-02-28T09:12:38;100815.00;;;15.08;59.77
76460;BME280;65299;46.084;18.762;2024-02-28T09:15:38;100822.31;;;15.31;60.12
76460;BME280;65299;46.084;18.762;2024-02-28T09:18:38;100827.50;;;15.51;59.82
76460;BME280;65299;46.084;18.762;2024-02-28T09:21:39;100832.00;;;15.22;59.86
76460;BME280;65299;46.084;18.762;2024-02-28T09:24:39;100829.84;;;15.24;60.06
76460;BME280;65299;46.084;18.762;2024-02-28T09:27:40;100821.41;;;15.40;59.98
76460;BME280;65299;46.084;18.762;2024-02-28T09:30:40;100830.03;;;15.66;59.38
76460;BME280;65299;46.084;18.762;2024-02-28T09:33:41;100831.13;;;15.65;59.57
76460;BME280;65299;46.084;18.762;2024-02-28T09:36:42;100828.00;;;16.05;58.86
76460;BME280;65299;46.084;18.762;2024-02-28T09:39:43;100835.31;;;16.00;58.78
76460;BME280;65299;46.084;18.762;2024-02-28T09:42:47;100833.34;;;16.52;58.69
76460;BME280;65299;46.084;18.762;2024-02-28T09:45:53;100830.66;;;16.90;57.65
76460;BME280;65299;46.084;18.762;2024-02-28T09:48:56;100830.31;;;16.59;56.87
76460;BME280;65299;46.084;18.762;2024-02-28T09:52:01;100834.06;;;16.77;55.75
76460;BME280;65299;46.084;18.762;2024-02-28T09:55:03;100836.09;;;16.66;54.70
76460;BME280;65299;46.084;18.762;2024-02-28T09:58:04;100840.00;;;16.92;55.56
76460;BME280;65299;46.084;18.762;2024-02-28T10:01:07;100839.75;;;17.26;55.27
76460;BME280;65299;46.084;18.762;2024-02-28T10:04:10;100838.41;;;17.42;54.20
76460;BME280;65299;46.084;18.762;2024-02-28T10:07:13;100842.00;;;17.51;53.04
76460;BME280;65299;46.084;18.762;2024-02-28T10:10:13;100845.31;;;17.62;53.62
76460;BME280;65299;46.084;18.762;2024-02-28T10:13:18;100847.84;;;17.21;53.68
76460;BME280;65299;46.084;18.762;2024-02-28T10:16:23;100842.06;;;17.65;53.62
76460;BME280;65299;46.084;18.762;2024-02-28T10:19:25;100847.44;;;17.32;52.68
76460;BME280;65299;46.084;18.762;2024-02-28T10:22:28;100842.97;;;17.41;52.68
76460;BME280;65299;46.084;18.762;2024-02-28T10:25:33;100844.56;;;17.42;53.60
76460;BME280;65299;46.084;18.762;2024-02-28T10:28:39;100842.66;;;17.11;53.67
76460;BME280;65299;46.084;18.762;2024-02-28T10:31:41;100844.00;;;17.27;54.15
76460;BME280;65299;46.084;18.762;2024-02-28T10:34:41;100847.03;;;17.39;52.84
76460;BME280;65299;46.084;18.762;2024-02-28T10:37:44;100846.44;;;17.61;51.99
76460;BME280;65299;46.084;18.762;2024-02-28T10:40:45;100848.34;;;17.87;52.41
76460;BME280;65299;46.084;18.762;2024-02-28T10:43:48;100849.75;;;18.12;51.34
76460;BME280;65299;46.084;18.762;2024-02-28T10:46:50;100843.06;;;17.96;51.10
76460;BME280;65299;46.084;18.762;2024-02-28T10:49:51;100837.63;;;18.28;50.83
76460;BME280;65299;46.084;18.762;2024-02-28T10:53:00;100839.50;;;18.00;51.07
76460;BME280;65299;46.084;18.762;2024-02-28T10:56:06;100837.03;;;18.04;50.99
76460;BME280;65299;46.084;18.762;2024-02-28T10:59:11;100841.56;;;17.90;50.88
76460;BME280;65299;46.084;18.762;2024-02-28T11:02:16;100845.44;;;17.57;52.81
76460;BME280;65299;46.084;18.762;2024-02-28T11:05:17;100836.13;;;17.95;51.44
76460;BME280;65299;46.084;18.762;2024-02-28T11:08:22;100838.88;;;17.90;51.23
76460;BME280;65299;46.084;18.762;2024-02-28T11:11:23;100836.81;;;17.73;52.08
76460;BME280;65299;46.084;18.762;2024-02-28T11:14:23;100827.25;;;18.21;50.53
76460;BME280;65299;46.084;18.762;2024-02-28T11:17:30;100834.63;;;17.89;51.07
76460;BME280;65299;46.084;18.762;2024-02-28T11:20:35;100834.81;;;17.92;51.17
76460;BME280;65299;46.084;18.762;2024-02-28T11:23:49;100832.44;;;18.32;49.90
76460;BME280;65299;46.084;18.762;2024-02-28T11:26:52;100827.53;;;18.61;49.65
76460;BME280;65299;46.084;18.762;2024-02-28T11:29:53;100834.72;;;18.24;50.91
76460;BME280;65299;46.084;18.762;2024-02-28T11:32:54;100827.25;;;18.21;50.15
76460;BME280;65299;46.084;18.762;2024-02-28T11:35:57;100823.50;;;17.95;50.57
76460;BME280;65299;46.084;18.762;2024-02-28T11:38:58;100825.38;;;18.08;50.10
76460;BME280;65299;46.084;18.762;2024-02-28T11:42:11;100823.19;;;18.10;50.82
76460;BME280;65299;46.084;18.762;2024-02-28T11:45:13;100819.69;;;18.23;50.37
76460;BME280;65299;46.084;18.762;2024-02-28T11:48:14;100815.91;;;18.24;50.00
76460;BME280;65299;46.084;18.762;2024-02-28T11:51:15;100811.00;;;18.54;49.45
76460;BME280;65299;46.084;18.762;2024-02-28T11:54:15;100807.13;;;18.82;48.01
76460;BME280;65299;46.084;18.762;2024-02-28T11:57:16;100808.97;;;19.17;48.49
76460;BME280;65299;46.084;18.762;2024-02-28T12:00:17;100803.84;;;19.07;47.69
76460;BME280;65299;46.084;18.762;2024-02-28T12:03:22;100795.38;;;18.91;48.15
76460;BME280;65299;46.084;18.762;2024-02-28T12:06:23;100801.28;;;18.80;49.15
76460;BME280;65299;46.084;18.762;2024-02-28T12:09:23;100795.28;;;19.05;48.43
76460;BME280;65299;46.084;18.762;2024-02-28T12:12:24;100794.78;;;19.25;47.83
76460;BME280;65299;46.084;18.762;2024-02-28T12:15:25;100787.06;;;19.01;48.22
76460;BME280;65299;46.084;18.762;2024-02-28T12:18:26;100784.47;;;18.96;48.50
76460;BME280;65299;46.084;18.762;2024-02-28T12:21:27;100781.69;;;19.10;48.66
76460;BME280;65299;46.084;18.762;2024-02-28T12:24:28;100779.72;;;19.24;48.30
76460;BME280;65299;46.084;18.762;2024-02-28T12:27:28;100785.59;;;19.26;48.57
76460;BME280;65299;46.084;18.762;2024-02-28T12:30:28;100788.75;;;18.97;49.05
76460;BME280;65299;46.084;18.762;2024-02-28T12:33:29;100789.53;;;18.98;48.96
76460;BME280;65299;46.084;18.762;2024-02-28T12:36:30;100779.50;;;18.90;49.43
76460;BME280;65299;46.084;18.762;2024-02-28T12:39:33;100783.91;;;19.08;48.95
76460;BME280;65299;46.084;18.762;2024-02-28T12:42:34;100779.25;;;19.00;49.09
76460;BME280;65299;46.084;18.762;2024-02-28T12:45:34;100783.50;;;18.92;49.03
76460;BME280;65299;46.084;18.762;2024-02-28T12:48:38;100778.03;;;18.84;49.03
76460;BME280;65299;46.084;18.762;2024-02-28T12:51:41;100778.00;;;18.97;49.12
76460;BME280;65299;46.084;18.762;2024-02-28T12:54:43;100775.41;;;18.92;48.65
76460;BME280;65299;46.084;18.762;2024-02-28T12:57:43;100767.72;;;19.22;48.25
76460;BME280;65299;46.084;18.762;2024-02-28T13:00:44;100766.63;;;19.31;46.98
76460;BME280;65299;46.084;18.762;2024-02-28T13:03:44;100767.72;;;19.30;46.23
76460;BME280;65299;46.084;18.762;2024-02-28T13:06:45;100763.41;;;19.43;46.26
76460;BME280;65299;46.084;18.762;2024-02-28T13:09:45;100767.25;;;19.50;45.15
76460;BME280;65299;46.084;18.762;2024-02-28T13:12:46;100763.25;;;19.78;44.01
76460;BME280;65299;46.084;18.762;2024-02-28T13:15:46;100753.41;;;19.74;44.20
76460;BME280;65299;46.084;18.762;2024-02-28T13:18:46;100754.41;;;19.95;42.95
76460;BME280;65299;46.084;18.762;2024-02-28T13:21:47;100746.13;;;19.74;43.50
76460;BME280;65299;46.084;18.762;2024-02-28T13:24:47;100760.06;;;19.76;44.52
76460;BME280;65299;46.084;18.762;2024-02-28T13:27:48;100755.72;;;19.58;44.99
76460;BME280;65299;46.084;18.762;2024-02-28T13:30:48;100755.72;;;19.67;45.29
76460;BME280;65299;46.084;18.762;2024-02-28T13:33:48;100761.09;;;19.58;44.70
76460;BME280;65299;46.084;18.762;2024-02-28T13:36:49;100761.78;;;19.72;44.82
76460;BME280;65299;46.084;18.762;2024-02-28T13:39:50;100759.09;;;19.72;44.54
76460;BME280;65299;46.084;18.762;2024-02-28T13:42:52;100753.94;;;20.02;44.39
76460;BME280;65299;46.084;18.762;2024-02-28T13:45:53;100754.41;;;19.95;43.70
76460;BME280;65299;46.084;18.762;2024-02-28T13:48:55;100752.63;;;19.82;44.23
76460;BME280;65299;46.084;18.762;2024-02-28T13:51:56;100747.94;;;20.05;43.86
76460;BME280;65299;46.084;18.762;2024-02-28T13:54:57;100751.09;;;20.07;43.40
76460;BME280;65299;46.084;18.762;2024-02-28T14:01:37;100751.25;;;19.93;42.76
76460;BME280;65299;46.084;18.762;2024-02-28T14:04:38;100744.97;;;19.67;43.01
76460;BME280;65299;46.084;18.762;2024-02-28T14:07:39;100745.84;;;19.93;42.53
76460;BME280;65299;46.084;18.762;2024-02-28T14:10:41;100750.44;;;19.93;42.83
76460;BME280;65299;46.084;18.762;2024-02-28T14:13:44;100749.31;;;19.85;42.33
76460;BME280;65299;46.084;18.762;2024-02-28T14:16:44;100745.97;;;19.79;42.73
76460;BME280;65299;46.084;18.762;2024-02-28T14:19:45;100752.94;;;19.80;42.18
76460;BME280;65299;46.084;18.762;2024-02-28T14:22:48;100741.84;;;19.82;42.70
76460;BME280;65299;46.084;18.762;2024-02-28T14:25:48;100750.22;;;19.72;42.89
76460;BME280;65299;46.084;18.762;2024-02-28T14:28:49;100744.66;;;19.68;42.83
76460;BME280;65299;46.084;18.762;2024-02-28T14:31:49;100747.50;;;19.63;43.27
76460;BME280;65299;46.084;18.762;2024-02-28T14:34:49;100744.31;;;19.61;43.53
76460;BME280;65299;46.084;18.762;2024-02-28T14:37:51;100744.63;;;19.60;44.06
76460;BME280;65299;46.084;18.762;2024-02-28T14:40:52;100744.59;;;19.51;44.08
76460;BME280;65299;46.084;18.762;2024-02-28T14:43:53;100743.47;;;19.44;44.09
76460;BME280;65299;46.084;18.762;2024-02-28T14:46:53;100752.47;;;19.39;44.37
76460;BME280;65299;46.084;18.762;2024-02-28T14:49:53;100749.28;;;19.37;44.57
76460;BME280;65299;46.084;18.762;2024-02-28T14:52:54;100746.34;;;19.25;44.64
76460;BME280;65299;46.084;18.762;2024-02-28T14:55:54;100754.53;;;19.20;44.56
76460;BME280;65299;46.084;18.762;2024-02-28T14:58:55;100751.81;;;19.12;45.06
76460;BME280;65299;46.084;18.762;2024-02-28T15:01:56;100759.75;;;19.17;44.86
76460;BME280;65299;46.084;18.762;2024-02-28T15:04:56;100755.44;;;19.07;45.43
76460;BME280;65299;46.084;18.762;2024-02-28T15:07:57;100759.09;;;19.11;45.57
76460;BME280;65299;46.084;18.762;2024-02-28T15:10:57;100756.88;;;19.13;45.90
76460;BME280;65299;46.084;18.762;2024-02-28T15:13:58;100760.81;;;19.07;46.31
76460;BME280;65299;46.084;18.762;2024-02-28T15:16:59;100760.44;;;19.00;46.90
76460;BME280;65299;46.084;18.762;2024-02-28T15:20:00;100760.25;;;18.96;47.01
76460;BME280;65299;46.084;18.762;2024-02-28T15:23:04;100766.19;;;19.07;46.44
76460;BME280;65299;46.084;18.762;2024-02-28T15:26:04;100764.97;;;19.13;46.52
76460;BME280;65299;46.084;18.762;2024-02-28T15:29:04;100768.63;;;19.17;46.63
76460;BME280;65299;46.084;18.762;2024-02-28T15:32:05;100768.31;;;19.19;46.96
76460;BME280;65299;46.084;18.762;2024-02-28T15:35:07;100769.72;;;19.16;46.96
76460;BME280;65299;46.084;18.762;2024-02-28T15:38:08;100767.53;;;18.96;47.52
76460;BME280;65299;46.084;18.762;2024-02-28T15:41:08;100770.78;;;18.84;47.73